sensor_id;sensor_type;location;lat;lon;timestamp;P1;durP1;ratioP1;P2;durP2;ratioP2
28529;SDS011;15737;49.760;6.632;2023-04-06T00:01:38;2.00;;;1.53;;
28529;SDS011;15737;49.760;6.632;2023-04-06T00:04:04;3.40;;;1.60;;
28529;SDS011;15737;49.760;6.632;2023-04-06T00:06:30;1.90;;;1.50;;
28529;SDS011;15737;49.760;6.632;2023-04-06T00:08:56;1.43;;;1.33;;
28529;SDS011;15737;49.760;6.632;2023-04-06T00:11:22;2.23;;;1.27;;
28529;SDS011;15737;49.760;6.632;2023-04-06T00:13:48;0.10;;;0.10;;
28529;SDS011;15737;49.760;6.632;2023-04-06T00:16:13;3.73;;;3.00;;
28529;SDS011;15737;49.760;6.632;2023-04-06T00:18:39;0.00;;;0.00;;
28529;SDS011;15737;49.760;6.632;2023-04-06T00:21:05;0.13;;;0.13;;
28529;SDS011;15737;49.760;6.632;2023-04-06T00:23:31;0.00;;;0.00;;
28529;SDS011;15737;49.760;6.632;2023-04-06T00:25:56;1.10;;;1.10;;
28529;SDS011;15737;49.760;6.632;2023-04-06T00:28:22;1.13;;;0.93;;
28529;SDS011;15737;49.760;6.632;2023-04-06T00:30:50;3.73;;;1.33;;
28529;SDS011;15737;49.760;6.632;2023-04-06T00:33:17;1.77;;;1.60;;
28529;SDS011;15737;49.760;6.632;2023-04-06T00:35:43;2.10;;;1.57;;
28529;SDS011;15737;49.760;6.632;2023-04-06T00:38:09;1.87;;;1.43;;
28529;SDS011;15737;49.760;6.632;2023-04-06T00:40:35;0.10;;;0.10;;
28529;SDS011;15737;49.760;6.632;2023-04-06T00:43:00;0.80;;;0.67;;
28529;SDS011;15737;49.760;6.632;2023-04-06T00:45:26;2.40;;;1.73;;
28529;SDS011;15737;49.760;6.632;2023-04-06T00:47:52;1.67;;;1.57;;
28529;SDS011;15737;49.760;6.632;2023-04-06T00:50:18;2.37;;;1.77;;
28529;SDS011;15737;49.760;6.632;2023-04-06T00:52:44;2.23;;;1.50;;
28529;SDS011;15737;49.760;6.632;2023-04-06T00:55:10;2.07;;;1.70;;
28529;SDS011;15737;49.760;6.632;2023-04-06T00:57:35;3.20;;;2.17;;
28529;SDS011;15737;49.760;6.632;2023-04-06T01:00:01;0.00;;;0.00;;
28529;SDS011;15737;49.760;6.632;2023-04-06T01:02:27;0.03;;;0.03;;
28529;SDS011;15737;49.760;6.632;2023-04-06T01:04:53;2.30;;;1.77;;
28529;SDS011;15737;49.760;6.632;2023-04-06T01:07:19;4.20;;;1.70;;
28529;SDS011;15737;49.760;6.632;2023-04-06T01:09:45;3.77;;;1.60;;
28529;SDS011;15737;49.760;6.632;2023-04-06T01:12:10;1.23;;;0.80;;
28529;SDS011;15737;49.760;6.632;2023-04-06T01:14:36;2.40;;;1.60;;
28529;SDS011;15737;49.760;6.632;2023-04-06T01:17:01;0.87;;;0.87;;
28529;SDS011;15737;49.760;6.632;2023-04-06T01:19:27;3.07;;;1.63;;
28529;SDS011;15737;49.760;6.632;2023-04-06T01:21:53;1.90;;;1.00;;
28529;SDS011;15737;49.760;6.632;2023-04-06T01:24:19;1.60;;;1.30;;
28529;SDS011;15737;49.760;6.632;2023-04-06T01:26:46;2.93;;;1.43;;
28529;SDS011;15737;49.760;6.632;2023-04-06T01:29:11;2.27;;;1.90;;
28529;SDS011;15737;49.760;6.632;2023-04-06T01:31:37;2.80;;;2.03;;
28529;SDS011;15737;49.760;6.632;2023-04-06T01:34:04;2.23;;;1.73;;
28529;SDS011;15737;49.760;6.632;2023-04-06T01:36:29;3.87;;;2.07;;
28529;SDS011;15737;49.760;6.632;2023-04-06T01:38:55;1.03;;;1.03;;
28529;SDS011;15737;49.760;6.632;2023-04-06T01:41:21;0.50;;;0.50;;
28529;SDS011;15737;49.760;6.632;2023-04-06T01:43:47;0.10;;;0.10;;
28529;SDS011;15737;49.760;6.632;2023-04-06T01:46:14;4.57;;;1.83;;
28529;SDS011;15737;49.760;6.632;2023-04-06T01:48:40;1.47;;;0.50;;
28529;SDS011;15737;49.760;6.632;2023-04-06T01:51:06;1.40;;;1.30;;
28529;SDS011;15737;49.760;6.632;2023-04-06T01:53:31;1.10;;;1.10;;
28529;SDS011;15737;49.760;6.632;2023-04-06T01:55:57;3.03;;;1.17;;
28529;SDS011;15737;49.760;6.632;2023-04-06T01:58:22;2.60;;;1.53;;
28529;SDS011;15737;49.760;6.632;2023-04-06T02:00:48;2.37;;;1.90;;
28529;SDS011;15737;49.760;6.632;2023-04-06T02:03:13;1.67;;;1.57;;
28529;SDS011;15737;49.760;6.632;2023-04-06T02:05:39;1.47;;;1.37;;
28529;SDS011;15737;49.760;6.632;2023-04-06T02:08:05;2.47;;;1.73;;
28529;SDS011;15737;49.760;6.632;2023-04-06T02:10:31;1.80;;;1.70;;
28529;SDS011;15737;49.760;6.632;2023-04-06T02:12:58;2.30;;;1.07;;
28529;SDS011;15737;49.760;6.632;2023-04-06T02:15:23;3.23;;;1.47;;
28529;SDS011;15737;49.760;6.632;2023-04-06T02:17:49;0.80;;;0.67;;
28529;SDS011;15737;49.760;6.632;2023-04-06T02:20:15;0.67;;;0.67;;
28529;SDS011;15737;49.760;6.632;2023-04-06T02:22:40;5.10;;;2.50;;
28529;SDS011;15737;49.760;6.632;2023-04-06T02:25:06;2.60;;;1.57;;
28529;SDS011;15737;49.760;6.632;2023-04-06T02:27:32;1.60;;;1.50;;
28529;SDS011;15737;49.760;6.632;2023-04-06T02:29:58;5.20;;;1.13;;
28529;SDS011;15737;49.760;6.632;2023-04-06T02:32:24;1.70;;;1.53;;
28529;SDS011;15737;49.760;6.632;2023-04-06T02:34:49;2.23;;;1.23;;
28529;SDS011;15737;49.760;6.632;2023-04-06T02:37:15;2.47;;;1.30;;
28529;SDS011;15737;49.760;6.632;2023-04-06T02:39:41;0.70;;;0.70;;
28529;SDS011;15737;49.760;6.632;2023-04-06T02:42:06;0.73;;;0.73;;
28529;SDS011;15737;49.760;6.632;2023-04-06T02:44:33;1.80;;;0.30;;
28529;SDS011;15737;49.760;6.632;2023-04-06T02:46:59;0.40;;;0.27;;
28529;SDS011;15737;49.760;6.632;2023-04-06T02:49:24;5.27;;;1.70;;
28529;SDS011;15737;49.760;6.632;2023-04-06T02:51:50;1.80;;;1.50;;
28529;SDS011;15737;49.760;6.632;2023-04-06T02:54:15;2.03;;;1.70;;
28529;SDS011;15737;49.760;6.632;2023-04-06T02:56:41;2.07;;;1.70;;
28529;SDS011;15737;49.760;6.632;2023-04-06T02:59:07;2.73;;;1.40;;
28529;SDS011;15737;49.760;6.632;2023-04-06T03:01:32;3.13;;;1.70;;
28529;SDS011;15737;49.760;6.632;2023-04-06T03:03:58;2.63;;;1.57;;
28529;SDS011;15737;49.760;6.632;2023-04-06T03:06:23;3.00;;;2.33;;
28529;SDS011;15737;49.760;6.632;2023-04-06T03:08:49;2.70;;;1.40;;
28529;SDS011;15737;49.760;6.632;2023-04-06T03:11:15;1.77;;;1.57;;
28529;SDS011;15737;49.760;6.632;2023-04-06T03:13:40;3.07;;;2.83;;
28529;SDS011;15737;49.760;6.632;2023-04-06T03:16:06;3.60;;;1.93;;
28529;SDS011;15737;49.760;6.632;2023-04-06T03:18:32;2.33;;;1.67;;
28529;SDS011;15737;49.760;6.632;2023-04-06T03:20:57;4.10;;;3.90;;
28529;SDS011;15737;49.760;6.632;2023-04-06T03:23:25;4.90;;;4.70;;
28529;SDS011;15737;49.760;6.632;2023-04-06T03:25:50;3.30;;;3.23;;
28529;SDS011;15737;49.760;6.632;2023-04-06T03:28:16;2.27;;;1.17;;
28529;SDS011;15737;49.760;6.632;2023-04-06T03:30:42;0.97;;;0.97;;
28529;SDS011;15737;49.760;6.632;2023-04-06T03:33:07;2.70;;;2.43;;
28529;SDS011;15737;49.760;6.632;2023-04-06T03:35:33;1.73;;;1.73;;
28529;SDS011;15737;49.760;6.632;2023-04-06T03:37:58;5.17;;;4.53;;
28529;SDS011;15737;49.760;6.632;2023-04-06T03:40:24;0.53;;;0.53;;
28529;SDS011;15737;49.760;6.632;2023-04-06T03:42:50;1.80;;;1.70;;
28529;SDS011;15737;49.760;6.632;2023-04-06T03:45:16;2.27;;;2.07;;
28529;SDS011;15737;49.760;6.632;2023-04-06T03:47:41;1.57;;;1.47;;
28529;SDS011;15737;49.760;6.632;2023-04-06T03:50:07;1.43;;;1.43;;
28529;SDS011;15737;49.760;6.632;2023-04-06T03:52:34;1.47;;;1.40;;
28529;SDS011;15737;49.760;6.632;2023-04-06T03:55:00;4.73;;;1.93;;
28529;SDS011;15737;49.760;6.632;2023-04-06T03:57:26;3.60;;;2.07;;
28529;SDS011;15737;49.760;6.632;2023-04-06T03:59:55;3.40;;;2.43;;
28529;SDS011;15737;49.760;6.632;2023-04-06T04:02:20;3.20;;;2.07;;
28529;SDS011;15737;49.760;6.632;2023-04-06T04:04:46;0.67;;;0.67;;
28529;SDS011;15737;49.760;6.632;2023-04-06T04:07:11;2.77;;;2.03;;
28529;SDS011;15737;49.760;6.632;2023-04-06T04:09:37;2.50;;;1.70;;
28529;SDS011;15737;49.760;6.632;2023-04-06T04:12:02;4.77;;;1.77;;
28529;SDS011;15737;49.760;6.632;2023-04-06T04:14:28;1.70;;;1.50;;
28529;SDS011;15737;49.760;6.632;2023-04-06T04:16:54;2.70;;;2.27;;
28529;SDS011;15737;49.760;6.632;2023-04-06T04:19:19;1.80;;;1.70;;
28529;SDS011;15737;49.760;6.632;2023-04-06T04:21:45;0.97;;;0.97;;
28529;SDS011;15737;49.760;6.632;2023-04-06T04:24:12;2.83;;;2.57;;
28529;SDS011;15737;49.760;6.632;2023-04-06T04:26:38;3.60;;;1.80;;
28529;SDS011;15737;49.760;6.632;2023-04-06T04:29:05;4.93;;;1.93;;
28529;SDS011;15737;49.760;6.632;2023-04-06T04:31:31;1.70;;;1.60;;
28529;SDS011;15737;49.760;6.632;2023-04-06T04:33:57;2.00;;;1.50;;
28529;SDS011;15737;49.760;6.632;2023-04-06T04:36:24;1.63;;;1.53;;
28529;SDS011;15737;49.760;6.632;2023-04-06T04:38:50;1.60;;;0.87;;
28529;SDS011;15737;49.760;6.632;2023-04-06T04:41:16;1.87;;;1.10;;
28529;SDS011;15737;49.760;6.632;2023-04-06T04:43:42;3.10;;;2.07;;
28529;SDS011;15737;49.760;6.632;2023-04-06T04:46:07;1.97;;;1.73;;
28529;SDS011;15737;49.760;6.632;2023-04-06T04:48:33;3.47;;;2.10;;
28529;SDS011;15737;49.760;6.632;2023-04-06T04:50:58;1.47;;;1.37;;
28529;SDS011;15737;49.760;6.632;2023-04-06T04:53:24;6.00;;;2.40;;
28529;SDS011;15737;49.760;6.632;2023-04-06T04:55:50;2.30;;;1.93;;
28529;SDS011;15737;49.760;6.632;2023-04-06T04:58:16;2.57;;;2.20;;
28529;SDS011;15737;49.760;6.632;2023-04-06T05:00:43;1.80;;;1.70;;
28529;SDS011;15737;49.760;6.632;2023-04-06T05:03:09;2.60;;;1.67;;
28529;SDS011;15737;49.760;6.632;2023-04-06T05:05:43;3.00;;;2.27;;
28529;SDS011;15737;49.760;6.632;2023-04-06T05:08:08;3.90;;;2.80;;
28529;SDS011;15737;49.760;6.632;2023-04-06T05:10:34;2.30;;;2.00;;
28529;SDS011;15737;49.760;6.632;2023-04-06T05:13:00;2.47;;;2.10;;
28529;SDS011;15737;49.760;6.632;2023-04-06T05:15:25;2.70;;;2.27;;
28529;SDS011;15737;49.760;6.632;2023-04-06T05:17:51;3.20;;;2.50;;
28529;SDS011;15737;49.760;6.632;2023-04-06T05:20:17;3.70;;;2.93;;
28529;SDS011;15737;49.760;6.632;2023-04-06T05:22:42;6.10;;;2.00;;
28529;SDS011;15737;49.760;6.632;2023-04-06T05:25:08;4.77;;;2.80;;
28529;SDS011;15737;49.760;6.632;2023-04-06T05:27:33;3.17;;;1.83;;
28529;SDS011;15737;49.760;6.632;2023-04-06T05:29:59;4.90;;;2.73;;
28529;SDS011;15737;49.760;6.632;2023-04-06T05:32:25;7.77;;;2.27;;
28529;SDS011;15737;49.760;6.632;2023-04-06T05:34:51;6.23;;;2.90;;
28529;SDS011;15737;49.760;6.632;2023-04-06T05:37:17;6.33;;;3.17;;
28529;SDS011;15737;49.760;6.632;2023-04-06T05:39:43;5.43;;;3.43;;
28529;SDS011;15737;49.760;6.632;2023-04-06T05:42:08;4.53;;;3.27;;
28529;SDS011;15737;49.760;6.632;2023-04-06T05:44:36;5.97;;;2.53;;
28529;SDS011;15737;49.760;6.632;2023-04-06T05:47:02;5.80;;;3.60;;
28529;SDS011;15737;49.760;6.632;2023-04-06T05:49:27;4.27;;;3.33;;
28529;SDS011;15737;49.760;6.632;2023-04-06T05:51:53;5.43;;;3.47;;
28529;SDS011;15737;49.760;6.632;2023-04-06T05:54:19;3.87;;;3.20;;
28529;SDS011;15737;49.760;6.632;2023-04-06T05:56:45;7.33;;;5.20;;
28529;SDS011;15737;49.760;6.632;2023-04-06T05:59:10;5.83;;;5.43;;
28529;SDS011;15737;49.760;6.632;2023-04-06T06:01:36;4.93;;;4.43;;
28529;SDS011;15737;49.760;6.632;2023-04-06T06:04:02;8.73;;;4.73;;
28529;SDS011;15737;49.760;6.632;2023-04-06T06:06:28;5.33;;;4.83;;
28529;SDS011;15737;49.760;6.632;2023-04-06T06:08:55;6.60;;;5.80;;
28529;SDS011;15737;49.760;6.632;2023-04-06T06:11:23;14.17;;;13.33;;
28529;SDS011;15737;49.760;6.632;2023-04-06T06:13:49;12.23;;;11.27;;
28529;SDS011;15737;49.760;6.632;2023-04-06T06:16:15;8.20;;;7.60;;
28529;SDS011;15737;49.760;6.632;2023-04-06T06:18:41;7.70;;;7.00;;
28529;SDS011;15737;49.760;6.632;2023-04-06T06:21:07;6.17;;;5.57;;
28529;SDS011;15737;49.760;6.632;2023-04-06T06:23:33;11.50;;;10.73;;
28529;SDS011;15737;49.760;6.632;2023-04-06T06:25:58;8.00;;;7.30;;
28529;SDS011;15737;49.760;6.632;2023-04-06T06:28:25;16.50;;;15.47;;
28529;SDS011;15737;49.760;6.632;2023-04-06T06:30:51;7.47;;;6.77;;
28529;SDS011;15737;49.760;6.632;2023-04-06T06:33:17;5.13;;;3.80;;
28529;SDS011;15737;49.760;6.632;2023-04-06T06:35:43;8.93;;;3.80;;
28529;SDS011;15737;49.760;6.632;2023-04-06T06:38:08;4.33;;;3.33;;
28529;SDS011;15737;49.760;6.632;2023-04-06T06:40:34;9.87;;;3.37;;
28529;SDS011;15737;49.760;6.632;2023-04-06T06:42:59;10.03;;;3.93;;
28529;SDS011;15737;49.760;6.632;2023-04-06T06:45:25;4.70;;;3.63;;
28529;SDS011;15737;49.760;6.632;2023-04-06T06:47:50;10.77;;;9.87;;
28529;SDS011;15737;49.760;6.632;2023-04-06T06:50:16;7.93;;;3.60;;
28529;SDS011;15737;49.760;6.632;2023-04-06T06:52:43;8.33;;;4.03;;
28529;SDS011;15737;49.760;6.632;2023-04-06T06:55:09;4.87;;;3.60;;
28529;SDS011;15737;49.760;6.632;2023-04-06T06:57:35;7.73;;;3.40;;
28529;SDS011;15737;49.760;6.632;2023-04-06T07:00:01;6.30;;;3.83;;
28529;SDS011;15737;49.760;6.632;2023-04-06T07:02:27;7.37;;;4.17;;
28529;SDS011;15737;49.760;6.632;2023-04-06T07:04:52;5.07;;;3.27;;
28529;SDS011;15737;49.760;6.632;2023-04-06T07:07:18;6.03;;;3.93;;
28529;SDS011;15737;49.760;6.632;2023-04-06T07:09:43;5.77;;;3.20;;
28529;SDS011;15737;49.760;6.632;2023-04-06T07:12:09;5.90;;;4.10;;
28529;SDS011;15737;49.760;6.632;2023-04-06T07:14:35;7.00;;;3.60;;
28529;SDS011;15737;49.760;6.632;2023-04-06T07:17:01;11.87;;;4.10;;
28529;SDS011;15737;49.760;6.632;2023-04-06T07:19:27;7.20;;;3.80;;
28529;SDS011;15737;49.760;6.632;2023-04-06T07:21:52;6.87;;;4.00;;
28529;SDS011;15737;49.760;6.632;2023-04-06T07:24:18;5.40;;;3.70;;
28529;SDS011;15737;49.760;6.632;2023-04-06T07:26:43;7.10;;;4.17;;
28529;SDS011;15737;49.760;6.632;2023-04-06T07:29:09;8.23;;;3.90;;
28529;SDS011;15737;49.760;6.632;2023-04-06T07:31:34;6.13;;;4.30;;
28529;SDS011;15737;49.760;6.632;2023-04-06T07:34:01;3.83;;;3.33;;
28529;SDS011;15737;49.760;6.632;2023-04-06T07:36:26;5.97;;;4.53;;
28529;SDS011;15737;49.760;6.632;2023-04-06T07:38:52;9.07;;;4.37;;
28529;SDS011;15737;49.760;6.632;2023-04-06T07:41:17;4.87;;;3.80;;
28529;SDS011;15737;49.760;6.632;2023-04-06T07:43:43;9.20;;;3.73;;
28529;SDS011;15737;49.760;6.632;2023-04-06T07:46:09;5.87;;;4.13;;
28529;SDS011;15737;49.760;6.632;2023-04-06T07:48:34;8.30;;;4.50;;
28529;SDS011;15737;49.760;6.632;2023-04-06T07:51:02;5.77;;;4.23;;
28529;SDS011;15737;49.760;6.632;2023-04-06T07:53:28;6.07;;;5.00;;
28529;SDS011;15737;49.760;6.632;2023-04-06T07:55:55;6.47;;;4.50;;
28529;SDS011;15737;49.760;6.632;2023-04-06T07:58:21;6.07;;;4.03;;
28529;SDS011;15737;49.760;6.632;2023-04-06T08:00:47;7.67;;;4.40;;
28529;SDS011;15737;49.760;6.632;2023-04-06T08:03:12;6.47;;;4.83;;
28529;SDS011;15737;49.760;6.632;2023-04-06T08:05:38;8.30;;;5.13;;
28529;SDS011;15737;49.760;6.632;2023-04-06T08:08:03;8.43;;;4.80;;
28529;SDS011;15737;49.760;6.632;2023-04-06T08:10:29;9.03;;;5.10;;
28529;SDS011;15737;49.760;6.632;2023-04-06T08:12:54;8.47;;;5.20;;
28529;SDS011;15737;49.760;6.632;2023-04-06T08:15:20;8.10;;;5.33;;
28529;SDS011;15737;49.760;6.632;2023-04-06T08:17:45;7.03;;;5.30;;
28529;SDS011;15737;49.760;6.632;2023-04-06T08:20:11;9.63;;;5.43;;
28529;SDS011;15737;49.760;6.632;2023-04-06T08:22:37;8.20;;;5.60;;
28529;SDS011;15737;49.760;6.632;2023-04-06T08:25:03;15.27;;;5.90;;
28529;SDS011;15737;49.760;6.632;2023-04-06T08:27:28;9.97;;;5.73;;
28529;SDS011;15737;49.760;6.632;2023-04-06T08:29:54;7.10;;;4.87;;
28529;SDS011;15737;49.760;6.632;2023-04-06T08:32:19;11.50;;;6.30;;
28529;SDS011;15737;49.760;6.632;2023-04-06T08:34:45;9.93;;;5.80;;
28529;SDS011;15737;49.760;6.632;2023-04-06T08:37:11;8.47;;;4.80;;
28529;SDS011;15737;49.760;6.632;2023-04-06T08:39:37;10.93;;;5.27;;
28529;SDS011;15737;49.760;6.632;2023-04-06T08:42:02;10.20;;;3.90;;
28529;SDS011;15737;49.760;6.632;2023-04-06T08:44:31;6.47;;;4.40;;
28529;SDS011;15737;49.760;6.632;2023-04-06T08:46:57;9.33;;;5.83;;
28529;SDS011;15737;49.760;6.632;2023-04-06T08:49:25;9.00;;;4.63;;
28529;SDS011;15737;49.760;6.632;2023-04-06T08:51:51;6.70;;;4.03;;
28529;SDS011;15737;49.760;6.632;2023-04-06T08:54:16;12.93;;;5.00;;
28529;SDS011;15737;49.760;6.632;2023-04-06T08:56:42;11.53;;;4.63;;
28529;SDS011;15737;49.760;6.632;2023-04-06T08:59:08;7.87;;;4.60;;
28529;SDS011;15737;49.760;6.632;2023-04-06T09:01:36;13.57;;;4.37;;
28529;SDS011;15737;49.760;6.632;2023-04-06T09:04:08;7.97;;;4.17;;
28529;SDS011;15737;49.760;6.632;2023-04-06T09:06:35;13.27;;;4.97;;
28529;SDS011;15737;49.760;6.632;2023-04-06T09:09:05;7.33;;;4.23;;
28529;SDS011;15737;49.760;6.632;2023-04-06T09:11:41;5.67;;;3.13;;
28529;SDS011;15737;49.760;6.632;2023-04-06T09:14:08;9.17;;;5.27;;
28529;SDS011;15737;49.760;6.632;2023-04-06T09:16:43;9.10;;;4.57;;
28529;SDS011;15737;49.760;6.632;2023-04-06T09:19:10;8.33;;;4.27;;
28529;SDS011;15737;49.760;6.632;2023-04-06T09:21:37;6.83;;;3.80;;
28529;SDS011;15737;49.760;6.632;2023-04-06T09:24:05;6.13;;;3.23;;
28529;SDS011;15737;49.760;6.632;2023-04-06T09:26:32;5.43;;;3.40;;
28529;SDS011;15737;49.760;6.632;2023-04-06T09:29:10;6.00;;;3.70;;
28529;SDS011;15737;49.760;6.632;2023-04-06T09:31:46;7.13;;;4.03;;
28529;SDS011;15737;49.760;6.632;2023-04-06T09:34:20;10.87;;;3.97;;
28529;SDS011;15737;49.760;6.632;2023-04-06T09:36:47;6.03;;;3.17;;
28529;SDS011;15737;49.760;6.632;2023-04-06T09:39:13;8.43;;;4.20;;
28529;SDS011;15737;49.760;6.632;2023-04-06T09:41:38;8.43;;;3.90;;
28529;SDS011;15737;49.760;6.632;2023-04-06T09:44:10;7.47;;;3.77;;
28529;SDS011;15737;49.760;6.632;2023-04-06T09:46:43;7.43;;;4.10;;
28529;SDS011;15737;49.760;6.632;2023-04-06T09:49:11;11.00;;;4.43;;
28529;SDS011;15737;49.760;6.632;2023-04-06T09:51:38;5.87;;;3.80;;
28529;SDS011;15737;49.760;6.632;2023-04-06T09:54:05;8.87;;;4.23;;
28529;SDS011;15737;49.760;6.632;2023-04-06T09:56:50;10.03;;;5.30;;
28529;SDS011;15737;49.760;6.632;2023-04-06T10:05:22;8.23;;;4.93;;
28529;SDS011;15737;49.760;6.632;2023-04-06T10:07:57;8.43;;;4.77;;
28529;SDS011;15737;49.760;6.632;2023-04-06T10:10:26;8.17;;;4.37;;
28529;SDS011;15737;49.760;6.632;2023-04-06T10:12:53;10.23;;;3.90;;
28529;SDS011;15737;49.760;6.632;2023-04-06T10:15:20;7.57;;;4.27;;
28529;SDS011;15737;49.760;6.632;2023-04-06T10:17:46;12.30;;;5.77;;
28529;SDS011;15737;49.760;6.632;2023-04-06T10:20:16;7.07;;;4.27;;
28529;SDS011;15737;49.760;6.632;2023-04-06T10:25:58;8.23;;;4.80;;
28529;SDS011;15737;49.760;6.632;2023-04-06T10:28:25;10.60;;;5.13;;
28529;SDS011;15737;49.760;6.632;2023-04-06T10:31:01;7.37;;;4.23;;
28529;SDS011;15737;49.760;6.632;2023-04-06T10:33:29;11.20;;;4.83;;
28529;SDS011;15737;49.760;6.632;2023-04-06T10:35:55;8.10;;;3.90;;
28529;SDS011;15737;49.760;6.632;2023-04-06T10:40:56;6.83;;;3.63;;
28529;SDS011;15737;49.760;6.632;2023-04-06T10:43:35;10.20;;;4.37;;
28529;SDS011;15737;49.760;6.632;2023-04-06T10:46:03;9.83;;;4.43;;
28529;SDS011;15737;49.760;6.632;2023-04-06T10:48:44;6.13;;;3.47;;
28529;SDS011;15737;49.760;6.632;2023-04-06T10:51:12;3.17;;;2.27;;
28529;SDS011;15737;49.760;6.632;2023-04-06T10:53:40;10.03;;;4.30;;
28529;SDS011;15737;49.760;6.632;2023-04-06T10:56:11;6.87;;;3.93;;
28529;SDS011;15737;49.760;6.632;2023-04-06T10:58:38;10.57;;;4.90;;
28529;SDS011;15737;49.760;6.632;2023-04-06T11:01:12;11.27;;;4.70;;
28529;SDS011;15737;49.760;6.632;2023-04-06T11:03:58;10.13;;;4.40;;
28529;SDS011;15737;49.760;6.632;2023-04-06T11:06:28;7.53;;;4.60;;
28529;SDS011;15737;49.760;6.632;2023-04-06T11:09:05;10.13;;;4.93;;
28529;SDS011;15737;49.760;6.632;2023-04-06T11:11:30;10.73;;;4.70;;
28529;SDS011;15737;49.760;6.632;2023-04-06T11:13:57;6.93;;;3.97;;
28529;SDS011;15737;49.760;6.632;2023-04-06T11:16:30;5.47;;;3.07;;
28529;SDS011;15737;49.760;6.632;2023-04-06T11:21:41;12.57;;;5.00;;
28529;SDS011;15737;49.760;6.632;2023-04-06T11:24:12;7.10;;;3.40;;
28529;SDS011;15737;49.760;6.632;2023-04-06T11:26:39;7.03;;;3.83;;
28529;SDS011;15737;49.760;6.632;2023-04-06T11:29:06;6.50;;;3.50;;
28529;SDS011;15737;49.760;6.632;2023-04-06T11:31:37;10.20;;;2.80;;
28529;SDS011;15737;49.760;6.632;2023-04-06T11:34:13;8.23;;;4.20;;
28529;SDS011;15737;49.760;6.632;2023-04-06T11:36:46;8.27;;;3.77;;
28529;SDS011;15737;49.760;6.632;2023-04-06T11:39:17;5.33;;;2.30;;
28529;SDS011;15737;49.760;6.632;2023-04-06T11:42:01;5.63;;;2.60;;
28529;SDS011;15737;49.760;6.632;2023-04-06T11:44:37;4.77;;;1.70;;
28529;SDS011;15737;49.760;6.632;2023-04-06T11:47:08;3.53;;;2.23;;
28529;SDS011;15737;49.760;6.632;2023-04-06T11:49:39;4.27;;;2.50;;
28529;SDS011;15737;49.760;6.632;2023-04-06T11:54:48;4.77;;;3.17;;
28529;SDS011;15737;49.760;6.632;2023-04-06T11:57:21;5.97;;;2.87;;
28529;SDS011;15737;49.760;6.632;2023-04-06T11:59:56;8.87;;;3.87;;
28529;SDS011;15737;49.760;6.632;2023-04-06T12:02:22;5.13;;;3.67;;
28529;SDS011;15737;49.760;6.632;2023-04-06T12:04:47;4.80;;;2.70;;
28529;SDS011;15737;49.760;6.632;2023-04-06T12:07:13;4.33;;;2.47;;
28529;SDS011;15737;49.760;6.632;2023-04-06T12:09:38;6.00;;;3.10;;
28529;SDS011;15737;49.760;6.632;2023-04-06T12:12:04;5.00;;;3.60;;
28529;SDS011;15737;49.760;6.632;2023-04-06T12:14:30;6.20;;;2.97;;
28529;SDS011;15737;49.760;6.632;2023-04-06T12:16:56;6.50;;;3.50;;
28529;SDS011;15737;49.760;6.632;2023-04-06T12:19:22;5.93;;;3.63;;
28529;SDS011;15737;49.760;6.632;2023-04-06T12:21:50;6.40;;;3.27;;
28529;SDS011;15737;49.760;6.632;2023-04-06T12:24:19;8.37;;;4.03;;
28529;SDS011;15737;49.760;6.632;2023-04-06T12:26:46;3.50;;;2.07;;
28529;SDS011;15737;49.760;6.632;2023-04-06T12:29:12;7.23;;;3.00;;
28529;SDS011;15737;49.760;6.632;2023-04-06T12:31:38;4.87;;;2.43;;
28529;SDS011;15737;49.760;6.632;2023-04-06T12:34:06;4.20;;;2.70;;
28529;SDS011;15737;49.760;6.632;2023-04-06T12:36:32;3.47;;;2.27;;
28529;SDS011;15737;49.760;6.632;2023-04-06T12:38:57;2.07;;;1.70;;
28529;SDS011;15737;49.760;6.632;2023-04-06T12:41:23;5.97;;;3.00;;
28529;SDS011;15737;49.760;6.632;2023-04-06T12:43:49;8.20;;;2.83;;
28529;SDS011;15737;49.760;6.632;2023-04-06T12:46:15;3.83;;;2.47;;
28529;SDS011;15737;49.760;6.632;2023-04-06T12:48:41;2.97;;;2.03;;
28529;SDS011;15737;49.760;6.632;2023-04-06T12:51:06;5.83;;;3.10;;
28529;SDS011;15737;49.760;6.632;2023-04-06T12:53:34;4.67;;;2.53;;
28529;SDS011;15737;49.760;6.632;2023-04-06T12:56:02;4.97;;;3.00;;
28529;SDS011;15737;49.760;6.632;2023-04-06T12:58:37;5.43;;;3.07;;
28529;SDS011;15737;49.760;6.632;2023-04-06T13:01:05;4.57;;;3.23;;
28529;SDS011;15737;49.760;6.632;2023-04-06T13:03:31;4.57;;;2.83;;
28529;SDS011;15737;49.760;6.632;2023-04-06T13:05:58;1.87;;;1.70;;
28529;SDS011;15737;49.760;6.632;2023-04-06T13:08:25;3.80;;;2.60;;
28529;SDS011;15737;49.760;6.632;2023-04-06T13:10:51;4.13;;;2.17;;
28529;SDS011;15737;49.760;6.632;2023-04-06T13:13:27;7.80;;;3.40;;
28529;SDS011;15737;49.760;6.632;2023-04-06T13:15:54;3.37;;;2.37;;
28529;SDS011;15737;49.760;6.632;2023-04-06T13:18:24;3.37;;;1.93;;
28529;SDS011;15737;49.760;6.632;2023-04-06T13:20:49;3.70;;;2.20;;
28529;SDS011;15737;49.760;6.632;2023-04-06T13:23:15;5.00;;;2.67;;
28529;SDS011;15737;49.760;6.632;2023-04-06T13:25:41;5.73;;;2.70;;
28529;SDS011;15737;49.760;6.632;2023-04-06T13:28:07;6.97;;;3.67;;
28529;SDS011;15737;49.760;6.632;2023-04-06T13:30:33;7.80;;;4.60;;
28529;SDS011;15737;49.760;6.632;2023-04-06T13:32:59;6.10;;;3.90;;
28529;SDS011;15737;49.760;6.632;2023-04-06T13:35:24;5.13;;;3.77;;
28529;SDS011;15737;49.760;6.632;2023-04-06T13:37:50;5.13;;;3.53;;
28529;SDS011;15737;49.760;6.632;2023-04-06T13:40:17;8.77;;;4.20;;
28529;SDS011;15737;49.760;6.632;2023-04-06T13:42:43;5.40;;;3.03;;
28529;SDS011;15737;49.760;6.632;2023-04-06T13:45:10;5.53;;;3.57;;
28529;SDS011;15737;49.760;6.632;2023-04-06T13:47:35;4.60;;;2.73;;
28529;SDS011;15737;49.760;6.632;2023-04-06T13:50:01;5.10;;;3.27;;
28529;SDS011;15737;49.760;6.632;2023-04-06T13:52:28;3.00;;;2.03;;
28529;SDS011;15737;49.760;6.632;2023-04-06T13:54:54;4.60;;;3.00;;
28529;SDS011;15737;49.760;6.632;2023-04-06T13:57:19;5.10;;;3.30;;
28529;SDS011;15737;49.760;6.632;2023-04-06T13:59:45;4.00;;;2.93;;
28529;SDS011;15737;49.760;6.632;2023-04-06T14:02:10;3.73;;;2.27;;
28529;SDS011;15737;49.760;6.632;2023-04-06T14:04:36;2.87;;;2.27;;
28529;SDS011;15737;49.760;6.632;2023-04-06T14:07:02;4.07;;;2.90;;
28529;SDS011;15737;49.760;6.632;2023-04-06T14:09:29;2.80;;;2.00;;
28529;SDS011;15737;49.760;6.632;2023-04-06T14:11:55;3.37;;;2.40;;
28529;SDS011;15737;49.760;6.632;2023-04-06T14:14:21;3.57;;;2.73;;
28529;SDS011;15737;49.760;6.632;2023-04-06T14:16:47;51.27;;;48.57;;
28529;SDS011;15737;49.760;6.632;2023-04-06T14:19:15;5.37;;;2.47;;
28529;SDS011;15737;49.760;6.632;2023-04-06T14:21:44;7.57;;;6.40;;
28529;SDS011;15737;49.760;6.632;2023-04-06T14:24:10;18.87;;;17.80;;
28529;SDS011;15737;49.760;6.632;2023-04-06T14:26:37;13.73;;;12.90;;
28529;SDS011;15737;49.760;6.632;2023-04-06T14:29:04;5.43;;;2.50;;
28529;SDS011;15737;49.760;6.632;2023-04-06T14:31:31;4.73;;;4.33;;
28529;SDS011;15737;49.760;6.632;2023-04-06T14:33:57;16.00;;;14.97;;
28529;SDS011;15737;49.760;6.632;2023-04-06T14:36:25;14.93;;;14.27;;
28529;SDS011;15737;49.760;6.632;2023-04-06T14:38:52;26.03;;;24.63;;
28529;SDS011;15737;49.760;6.632;2023-04-06T14:41:24;23.27;;;21.93;;
28529;SDS011;15737;49.760;6.632;2023-04-06T14:43:53;32.57;;;30.90;;
28529;SDS011;15737;49.760;6.632;2023-04-06T14:46:24;35.73;;;33.70;;
28529;SDS011;15737;49.760;6.632;2023-04-06T14:48:50;29.47;;;28.07;;
28529;SDS011;15737;49.760;6.632;2023-04-06T14:51:19;19.30;;;18.47;;
28529;SDS011;15737;49.760;6.632;2023-04-06T14:53:44;10.80;;;10.23;;
28529;SDS011;15737;49.760;6.632;2023-04-06T14:56:10;12.50;;;11.87;;
28529;SDS011;15737;49.760;6.632;2023-04-06T14:58:35;11.10;;;10.57;;
28529;SDS011;15737;49.760;6.632;2023-04-06T15:01:01;10.30;;;9.70;;